Time;durP1;ratioP1;P1;durP2;ratioP2;P2;SDS_P1;SDS_P2;PMS_P1;PMS_P2;Temp;Humidity;BMP_temperature;BMP_pressure;BME280_temperature;BME280_humidity;BME280_pressure;Samples;Min_cycle;Max_cycle;Signal;HPM_P1;HPM_P2
2022/04/24 00:02:44;;;;;;;32.75;16.60;;;;;;;5.75;75.09;98411.19;8528573;27;20103;-74
2022/04/24 00:06:48;;;;;;;28.50;16.40;;;;;;;5.77;75.31;98414.34;8552816;27;20042;-75
2022/04/24 00:10:50;;;;;;;29.65;17.20;;;;;;;5.82;75.03;98400.84;8518917;27;20046;-75
2022/04/24 00:14:51;;;;;;;29.05;16.45;;;;;;;5.77;75.09;98408.97;8555704;27;20055;-75
2022/04/24 00:18:52;;;;;;;28.33;16.30;;;;;;;5.73;75.39;98402.63;8545206;27;20476;-75
2022/04/24 00:22:52;;;;;;;33.53;16.90;;;;;;;5.68;75.19;98394.69;8544500;27;20077;-75
2022/04/24 00:26:54;;;;;;;29.90;15.95;;;;;;;5.63;75.19;98386.72;8522936;27;20099;-75
2022/04/24 00:30:55;;;;;;;26.13;15.35;;;;;;;5.50;75.18;98389.06;8516028;27;20100;-74
2022/04/24 00:34:56;;;;;;;28.60;14.90;;;;;;;5.43;75.16;98377.94;8524026;27;20039;-75
2022/04/24 00:38:57;;;;;;;28.02;14.35;;;;;;;5.39;75.14;98382.28;8528245;27;20053;-74
2022/04/24 00:42:58;;;;;;;26.70;13.68;;;;;;;5.28;75.32;98380.06;8528354;27;20039;-74
2022/04/24 00:47:09;;;;;;;23.30;14.02;;;;;;;5.18;75.56;98378.34;8508573;27;20053;-74
2022/04/24 00:51:11;;;;;;;27.23;14.57;;;;;;;5.17;75.75;98374.09;8510777;27;20041;-74
2022/04/24 00:55:12;;;;;;;25.10;14.32;;;;;;;5.16;76.22;98371.69;8504030;27;20145;-75
2022/04/24 00:59:15;;;;;;;29.73;14.52;;;;;;;5.23;76.50;98361.41;8529041;27;20073;-74
2022/04/24 01:03:16;;;;;;;24.27;14.13;;;;;;;5.45;76.83;98365.03;8503503;27;20051;-74
2022/04/24 01:07:17;;;;;;;28.42;14.32;;;;;;;5.78;76.57;98351.63;8512773;27;20062;-75
2022/04/24 01:11:18;;;;;;;28.40;15.02;;;;;;;5.93;75.90;98343.34;8498618;27;20043;-75
2022/04/24 01:15:19;;;;;;;25.05;14.10;;;;;;;6.05;75.73;98340.19;8504766;27;20492;-75
2022/04/24 01:19:20;;;;;;;23.27;13.70;;;;;;;6.19;75.06;98344.44;8507175;27;20154;-75
2022/04/24 01:23:21;;;;;;;21.05;12.27;;;;;;;6.33;74.33;98342.56;8503979;27;20182;-75
2022/04/24 01:27:22;;;;;;;25.23;12.30;;;;;;;6.41;73.88;98332.22;8467735;27;20047;-76
2022/04/24 01:31:24;;;;;;;24.27;12.38;;;;;;;6.52;73.42;98338.97;8501297;27;20047;-75
2022/04/24 01:35:25;;;;;;;17.73;9.68;;;;;;;6.63;72.69;98332.28;8515358;27;20388;-75
2022/04/24 01:39:26;;;;;;;19.60;9.13;;;;;;;6.68;72.19;98332.19;8505440;27;20054;-75
2022/04/24 01:43:28;;;;;;;16.17;8.80;;;;;;;6.70;72.02;98341.53;8464977;27;20126;-75
2022/04/24 01:47:29;;;;;;;16.42;9.32;;;;;;;6.76;71.16;98328.78;8498180;27;20048;-75
2022/04/24 01:51:30;;;;;;;14.98;8.80;;;;;;;6.77;71.01;98330.34;8478316;27;20134;-75
2022/04/24 01:55:31;;;;;;;14.10;7.78;;;;;;;6.79;70.93;98328.19;8505846;27;20051;-76
2022/04/24 01:59:32;;;;;;;18.10;8.43;;;;;;;6.83;70.32;98329.16;8503887;27;20050;-75
2022/04/24 02:03:34;;;;;;;17.23;8.98;;;;;;;6.83;70.46;98323.78;8506161;27;20424;-76
2022/04/24 02:07:35;;;;;;;18.63;8.73;;;;;;;6.74;70.78;98326.41;8511992;27;20035;-75
2022/04/24 02:11:37;;;;;;;15.30;9.25;;;;;;;6.68;70.74;98332.19;8463420;27;20043;-75
2022/04/24 02:15:38;;;;;;;20.20;10.25;;;;;;;6.63;70.77;98318.88;8430299;27;20203;-75
2022/04/24 02:19:39;;;;;;;19.58;10.35;;;;;;;6.61;70.74;98326.44;8502695;27;20051;-75
2022/04/24 02:23:40;;;;;;;17.05;9.52;;;;;;;6.54;71.24;98315.31;8478982;27;20486;-75
2022/04/24 02:27:42;;;;;;;20.55;9.63;;;;;;;6.47;71.53;98318.41;8496646;27;20047;-75
2022/04/24 02:31:43;;;;;;;26.33;10.77;;;;;;;6.45;71.68;98306.41;8496555;27;20049;-74
2022/04/24 02:35:44;;;;;;;22.08;10.38;;;;;;;6.48;71.68;98300.44;8496628;27;20043;-75
2022/04/24 02:39:44;;;;;;;19.67;10.80;;;;;;;6.48;71.67;98305.78;8496769;27;20145;-75
2022/04/24 02:43:46;;;;;;;27.30;11.75;;;;;;;6.46;71.54;98291.88;8506371;27;20134;-75
2022/04/24 02:47:47;;;;;;;24.30;11.50;;;;;;;6.39;71.79;98291.50;8530962;27;20453;-74
2022/04/24 02:51:48;;;;;;;27.33;12.13;;;;;;;6.40;71.93;98293.09;8529582;27;20541;-75
2022/04/24 02:55:48;;;;;;;20.30;11.55;;;;;;;6.40;72.31;98282.38;8528859;27;20043;-75
2022/04/24 02:59:50;;;;;;;20.83;11.90;;;;;;;6.42;72.18;98285.53;8530293;27;20074;-74
2022/04/24 03:03:50;;;;;;;22.42;11.88;;;;;;;6.37;72.09;98273.03;8529883;27;20043;-75
2022/04/24 03:07:52;;;;;;;22.27;10.45;;;;;;;6.26;72.75;98275.13;8529785;27;20046;-75
2022/04/24 03:11:53;;;;;;;19.70;10.48;;;;;;;6.16;72.81;98261.94;8529841;27;20054;-75
2022/04/24 03:15:54;;;;;;;23.08;10.93;;;;;;;6.06;72.85;98262.16;8529800;27;20095;-74
2022/04/24 03:19:54;;;;;;;26.35;10.20;;;;;;;5.93;73.31;98246.88;8529860;27;20039;-74
2022/04/24 03:23:55;;;;;;;19.38;9.70;;;;;;;5.89;73.60;98245.88;8529558;27;20054;-76
2022/04/24 03:27:56;;;;;;;24.33;10.88;;;;;;;5.91;73.62;98243.72;8529441;27;20555;-75
2022/04/24 03:31:57;;;;;;;18.65;9.90;;;;;;;5.88;73.59;98238.94;8510333;27;20039;-74
2022/04/24 03:35:58;;;;;;;19.60;8.60;;;;;;;5.92;73.72;98234.59;8529325;27;20079;-75
2022/04/24 03:39:59;;;;;;;14.20;7.88;;;;;;;5.99;73.44;98237.63;8528621;27;20102;-75
2022/04/24 03:44:00;;;;;;;19.95;9.48;;;;;;;6.04;73.32;98232.16;8529180;27;20110;-74
2022/04/24 03:48:01;;;;;;;17.95;8.20;;;;;;;6.08;72.91;98238.50;8528786;27;20416;-76
2022/04/24 03:52:02;;;;;;;16.58;8.02;;;;;;;6.12;72.77;98228.78;8528639;27;20129;-75
2022/04/24 03:56:04;;;;;;;11.35;7.25;;;;;;;6.18;72.81;98238.31;8528633;27;20117;-75
2022/04/24 04:00:10;;;;;;;14.80;7.65;;;;;;;6.28;72.43;98232.75;8474991;27;20043;-75
2022/04/24 04:04:11;;;;;;;19.83;7.25;;;;;;;6.31;72.27;98242.84;8528318;27;20047;-75
2022/04/24 04:08:12;;;;;;;14.25;7.18;;;;;;;6.32;72.22;98244.44;8528407;27;20115;-74
2022/04/24 04:12:13;;;;;;;15.32;7.15;;;;;;;6.36;71.86;98248.09;8527747;27;20049;-75
2022/04/24 04:16:13;;;;;;;12.45;7.38;;;;;;;6.40;71.94;98255.56;8528213;27;20059;-75
2022/04/24 04:20:14;;;;;;;15.55;6.88;;;;;;;6.47;71.65;98255.91;8528090;27;20046;-75
2022/04/24 04:24:16;;;;;;;16.10;7.82;;;;;;;6.58;71.51;98246.56;8509394;27;20074;-75
2022/04/24 04:28:17;;;;;;;13.13;7.07;;;;;;;6.62;71.20;98247.53;8491123;27;20042;-75
2022/04/24 04:32:18;;;;;;;13.82;6.40;;;;;;;6.73;70.85;98247.00;8491147;27;20046;-75
2022/04/24 04:36:19;;;;;;;12.10;6.97;;;;;;;6.85;71.01;98245.66;8533066;27;20496;-75
2022/04/24 04:40:20;;;;;;;16.40;6.68;;;;;;;6.86;70.78;98248.03;8535002;27;20061;-75
2022/04/24 04:44:21;;;;;;;11.52;6.22;;;;;;;6.95;70.65;98251.56;8497488;27;20058;-75
2022/04/24 04:48:22;;;;;;;14.52;7.05;;;;;;;7.00;70.81;98259.50;8534471;27;20121;-75
2022/04/24 04:52:23;;;;;;;16.50;6.60;;;;;;;7.03;71.00;98264.25;8534333;27;20053;-75
2022/04/24 04:56:24;;;;;;;15.65;6.72;;;;;;;7.04;71.16;98260.47;8534282;27;20047;-75
2022/04/24 05:00:25;;;;;;;12.82;6.32;;;;;;;7.13;71.23;98268.59;8534129;27;20050;-76
2022/04/24 05:04:26;;;;;;;12.65;6.57;;;;;;;7.21;70.73;98271.34;8533899;27;20412;-76
2022/04/24 05:08:27;;;;;;;14.35;7.15;;;;;;;7.44;69.92;98279.38;8533910;27;20050;-75
2022/04/24 05:12:28;;;;;;;11.10;6.10;;;;;;;7.54;69.75;98279.09;8533985;27;20067;-75
2022/04/24 05:16:30;;;;;;;9.95;5.55;;;;;;;7.70;69.23;98272.22;8479784;27;20501;-75
2022/04/24 05:20:31;;;;;;;10.60;6.68;;;;;;;7.80;68.81;98281.91;8533439;27;20123;-75
2022/04/24 05:24:32;;;;;;;10.98;6.10;;;;;;;7.92;68.27;98280.22;8532869;27;20049;-76
2022/04/24 05:28:33;;;;;;;15.13;6.13;;;;;;;8.01;67.87;98272.97;8479610;27;20047;-76
2022/04/24 05:32:38;;;;;;;11.68;6.18;;;;;;;8.11;67.35;98276.47;8533209;27;20130;-75
2022/04/24 05:36:39;;;;;;;13.52;6.35;;;;;;;8.23;67.47;98271.28;8532787;27;20049;-75
2022/04/24 05:40:40;;;;;;;11.27;5.90;;;;;;;8.39;67.05;98267.09;8478713;27;20119;-75
2022/04/24 05:44:41;;;;;;;14.00;6.25;;;;;;;8.52;66.67;98255.38;8479705;27;20077;-75
2022/04/24 05:48:42;;;;;;;11.90;6.35;;;;;;;8.62;66.01;98260.44;8497472;27;20039;-76
2022/04/24 05:52:43;;;;;;;14.25;6.40;;;;;;;8.74;65.57;98257.91;8498163;27;20094;-76
2022/04/24 05:56:44;;;;;;;11.40;6.22;;;;;;;8.84;65.28;98257.59;8498276;27;20053;-75
2022/04/24 06:00:45;;;;;;;14.82;6.20;;;;;;;8.96;65.48;98254.28;8498234;27;20429;-75
2022/04/24 06:04:46;;;;;;;12.68;6.50;;;;;;;9.10;64.85;98251.38;8497898;27;20316;-76
2022/04/24 06:08:47;;;;;;;11.75;6.45;;;;;;;9.19;64.54;98247.59;8497794;27;20235;-75
2022/04/24 06:12:53;;;;;;;10.20;6.13;;;;;;;9.33;64.12;98242.00;8497765;27;20524;-76
2022/04/24 06:16:54;;;;;;;11.38;6.20;;;;;;;9.51;63.32;98242.75;8497176;27;20079;-76
2022/04/24 06:20:55;;;;;;;13.50;6.10;;;;;;;9.58;63.56;98233.03;8497075;27;20039;-75
2022/04/24 06:24:56;;;;;;;11.57;5.90;;;;;;;9.74;62.92;98231.38;8496856;27;20088;-76
2022/04/24 06:28:57;;;;;;;13.82;6.05;;;;;;;9.91;62.05;98229.72;8496862;27;20130;-76
2022/04/24 06:32:58;;;;;;;14.88;6.07;;;;;;;10.04;61.14;98234.13;8494299;27;20564;-75
2022/04/24 06:36:59;;;;;;;10.90;5.45;;;;;;;10.09;60.51;98225.84;8497152;27;20043;-76
2022/04/24 06:41:00;;;;;;;8.30;4.88;;;;;;;10.25;60.71;98228.78;8494054;27;20138;-75
2022/04/24 06:45:02;;;;;;;8.55;5.38;;;;;;;10.34;60.93;98227.59;8496280;27;20049;-76
2022/04/24 06:49:03;;;;;;;8.20;4.95;;;;;;;10.49;59.87;98218.91;8496495;27;20047;-76
2022/04/24 06:53:05;;;;;;;14.23;5.43;;;;;;;10.63;60.30;98223.28;8496026;27;20043;-75
2022/04/24 06:57:06;;;;;;;9.50;4.88;;;;;;;10.74;60.24;98213.63;8495896;27;20074;-75
2022/04/24 07:01:07;;;;;;;7.93;4.97;;;;;;;10.89;60.07;98199.53;8495961;27;20051;-75
2022/04/24 07:05:10;;;;;;;10.52;4.85;;;;;;;11.03;58.66;98189.22;8476393;27;20047;-75
2022/04/24 07:09:21;;;;;;;10.30;5.32;;;;;;;11.08;58.99;98178.19;8495665;27;20508;-76
2022/04/24 07:13:22;;;;;;;10.27;5.03;;;;;;;11.19;57.50;98181.25;8495390;27;20055;-76
2022/04/24 07:17:23;;;;;;;8.25;4.38;;;;;;;11.30;54.62;98166.97;8495446;27;20047;-76
2022/04/24 07:21:25;;;;;;;11.68;5.65;;;;;;;11.44;55.58;98162.03;8495330;27;20039;-76
2022/04/24 07:25:28;;;;;;;11.48;6.03;;;;;;;11.53;56.93;98159.22;8488074;27;20043;-74
2022/04/24 07:29:28;;;;;;;10.05;5.32;;;;;;;11.74;55.89;98154.50;8488235;27;20042;-76
2022/04/24 07:33:29;;;;;;;10.23;4.43;;;;;;;11.94;52.54;98155.53;8483752;27;20047;-77
2022/04/24 07:37:33;;;;;;;5.47;3.30;;;;;;;12.11;49.83;98155.25;8473649;27;20474;-77
2022/04/24 07:41:34;;;;;;;9.02;3.83;;;;;;;12.21;49.19;98162.13;8459472;27;20050;-82
2022/04/24 07:45:42;;;;;;;6.03;3.80;;;;;;;12.27;48.07;98156.13;8466569;27;20047;-75
2022/04/24 07:49:43;;;;;;;6.55;3.28;;;;;;;12.36;47.46;98152.50;8475766;27;20043;-76
2022/04/24 07:53:44;;;;;;;6.95;4.38;;;;;;;12.47;47.79;98137.34;8480344;27;20055;-76
2022/04/24 07:57:49;;;;;;;6.50;3.20;;;;;;;12.59;48.83;98151.63;8473306;27;20051;-77
2022/04/24 08:01:51;;;;;;;6.97;3.63;;;;;;;12.82;48.28;98149.16;8469666;27;20066;-76
2022/04/24 08:05:52;;;;;;;5.68;3.40;;;;;;;13.07;45.97;98139.75;8461885;27;20075;-75
2022/04/24 08:09:53;;;;;;;14.98;4.40;;;;;;;13.07;46.14;98139.75;8463874;27;20047;-77
2022/04/24 08:13:54;;;;;;;8.63;3.53;;;;;;;13.09;44.75;98134.78;8473163;27;20503;-76
2022/04/24 08:17:55;;;;;;;7.10;3.80;;;;;;;13.08;45.51;98157.59;8474714;27;20258;-76
2022/04/24 08:21:56;;;;;;;8.38;3.97;;;;;;;13.25;45.63;98155.72;8431591;27;20040;-76
2022/04/24 08:25:57;;;;;;;5.95;3.53;;;;;;;13.47;44.36;98152.41;8468446;27;20036;-77
2022/04/24 08:29:58;;;;;;;8.07;4.03;;;;;;;13.58;43.87;98142.63;8429238;27;20084;-77
2022/04/24 08:34:00;;;;;;;6.85;3.65;;;;;;;13.63;44.20;98138.84;8478323;27;20215;-77
2022/04/24 08:38:01;;;;;;;8.23;4.18;;;;;;;13.72;44.84;98148.38;8472501;27;20047;-78
2022/04/24 08:42:03;;;;;;;7.05;3.92;;;;;;;13.88;44.34;98151.84;8512065;27;20065;-77
2022/04/24 08:46:05;;;;;;;7.32;3.90;;;;;;;13.88;44.94;98162.69;8483987;27;20035;-79
2022/04/24 08:50:06;;;;;;;12.52;4.55;;;;;;;13.94;44.54;98161.28;8485615;27;20043;-79
2022/04/24 08:54:07;;;;;;;8.48;4.38;;;;;;;13.87;43.89;98166.56;8515745;27;20121;-79
2022/04/24 08:58:08;;;;;;;7.18;4.10;;;;;;;13.73;43.52;98163.50;8504269;27;20046;-77
2022/04/24 09:02:10;;;;;;;5.22;3.80;;;;;;;13.64;44.43;98168.31;8498874;27;20035;-76
2022/04/24 09:06:22;;;;;;;6.90;4.15;;;;;;;13.62;45.04;98165.19;8468841;27;20135;-76
2022/04/24 09:10:23;;;;;;;13.80;5.80;;;;;;;13.61;45.97;98169.03;8516181;27;20549;-79
2022/04/24 09:14:30;;;;;;;10.18;4.13;;;;;;;13.61;44.78;98174.44;8512891;27;20031;-75
2022/04/24 09:18:46;;;;;;;6.45;4.60;;;;;;;13.58;44.89;98172.47;8502439;27;20066;-77
2022/04/24 09:22:47;;;;;;;6.70;4.28;;;;;;;13.59;44.96;98170.53;8512192;27;20107;-76
2022/04/24 09:26:53;;;;;;;8.57;4.55;;;;;;;13.55;46.31;98165.00;8456225;27;20047;-77
2022/04/24 09:30:54;;;;;;;8.88;5.07;;;;;;;13.52;46.80;98154.88;8509025;27;20070;-76
2022/04/24 09:34:57;;;;;;;8.63;4.72;;;;;;;13.43;46.55;98156.97;8516445;27;20722;-76
2022/04/24 09:38:58;;;;;;;11.02;4.75;;;;;;;13.33;47.13;98152.03;8499539;27;20427;-76
2022/04/24 09:43:01;;;;;;;20.15;5.60;;;;;;;13.29;46.12;98151.19;8517731;27;20062;-77
2022/04/24 09:47:03;;;;;;;9.10;4.80;;;;;;;13.21;46.84;98144.00;8510562;27;20469;-77
2022/04/24 09:51:04;;;;;;;8.38;4.95;;;;;;;13.27;47.57;98142.63;8510392;27;20043;-77
2022/04/24 09:55:05;;;;;;;9.98;5.00;;;;;;;13.35;47.64;98133.50;8508342;27;20077;-77
2022/04/24 09:59:07;;;;;;;15.38;8.38;;;;;;;13.48;47.97;98124.16;8520773;27;20408;-78
2022/04/24 10:03:16;;;;;;;8.75;5.82;;;;;;;13.56;46.82;98139.47;8489153;27;20058;-80
2022/04/24 10:07:19;;;;;;;14.98;9.80;;;;;;;13.55;47.16;98132.44;8514108;27;20058;-80
2022/04/24 10:11:20;;;;;;;12.70;7.05;;;;;;;13.63;47.33;98123.34;8506483;27;20046;-79
2022/04/24 10:15:23;;;;;;;9.95;6.25;;;;;;;13.69;47.38;98111.09;8521142;27;20051;-79
2022/04/24 10:19:36;;;;;;;11.25;7.38;;;;;;;13.61;47.01;98114.78;8511498;27;20126;-80
2022/04/24 10:23:38;;;;;;;12.55;6.38;;;;;;;13.54;46.98;98109.16;8518502;27;20046;-77
2022/04/24 10:27:43;;;;;;;11.63;7.00;;;;;;;13.52;47.89;98095.97;8456789;27;20134;-77
2022/04/24 10:31:48;;;;;;;15.45;7.22;;;;;;;13.77;48.09;98080.25;8509715;27;20114;-77
2022/04/24 10:35:55;;;;;;;13.02;6.40;;;;;;;14.16;46.66;98069.47;8511219;27;20491;-77
2022/04/24 10:39:58;;;;;;;12.02;6.90;;;;;;;14.50;46.16;98062.38;8504945;27;20505;-77
2022/04/24 10:44:12;;;;;;;11.68;7.13;;;;;;;14.80;44.89;98061.38;8519361;27;20042;-77
2022/04/24 10:48:14;;;;;;;11.20;7.22;;;;;;;14.75;44.36;98060.94;8505735;27;20039;-77
2022/04/24 10:52:15;;;;;;;13.57;6.80;;;;;;;14.60;44.25;98057.16;8517585;27;20043;-77
2022/04/24 10:56:17;;;;;;;15.80;7.25;;;;;;;14.37;43.68;98053.63;8506550;27;20104;-78
2022/04/24 11:00:26;;;;;;;13.23;6.90;;;;;;;14.28;44.44;98044.84;8501973;27;20039;-78
2022/04/24 11:04:27;;;;;;;17.23;5.78;;;;;;;14.23;45.65;98053.28;8496525;27;20118;-78
2022/04/24 11:08:28;;;;;;;15.07;6.32;;;;;;;14.18;45.56;98048.16;8517259;27;20035;-77
2022/04/24 11:12:31;;;;;;;9.23;6.25;;;;;;;14.32;44.84;98034.88;8468140;27;20050;-78
2022/04/24 11:16:32;;;;;;;11.57;5.65;;;;;;;14.46;44.27;98035.16;8524811;27;20069;-77
2022/04/24 11:20:33;;;;;;;21.55;6.25;;;;;;;14.52;44.18;98030.22;8512159;27;20036;-78
2022/04/24 11:24:36;;;;;;;11.95;6.68;;;;;;;14.60;44.23;98029.97;8505217;27;20038;-78
2022/04/24 11:28:43;;;;;;;12.68;5.75;;;;;;;14.83;44.50;98021.06;8505065;27;20054;-76
2022/04/24 11:33:05;;;;;;;11.82;5.95;;;;;;;14.96;44.49;98019.75;8512361;27;20050;-78
2022/04/24 11:37:09;;;;;;;10.13;6.13;;;;;;;15.04;42.85;98021.41;8516731;27;20461;-78
2022/04/24 11:41:14;;;;;;;11.65;5.57;;;;;;;15.02;41.82;98019.03;8473302;27;20047;-76
2022/04/24 11:53:56;;;;;;;8.35;4.90;;;;;;;15.17;41.98;98014.66;8507356;27;20032;-76
2022/04/24 11:57:59;;;;;;;8.93;4.97;;;;;;;15.04;42.65;98005.09;8503032;27;20051;-76
2022/04/24 12:02:00;;;;;;;11.35;5.15;;;;;;;15.08;42.75;98006.72;8500223;27;20481;-76
2022/04/24 12:06:02;;;;;;;13.02;5.60;;;;;;;14.99;42.10;98005.41;8501800;27;20050;-76
2022/04/24 12:10:09;;;;;;;13.02;4.90;;;;;;;14.80;42.48;98001.59;8515893;27;20050;-77
2022/04/24 12:14:11;;;;;;;11.10;5.57;;;;;;;14.66;42.68;98001.38;8516915;27;20043;-77
2022/04/24 12:18:20;;;;;;;11.35;5.13;;;;;;;14.59;42.85;97995.78;8512442;27;20099;-77
2022/04/24 12:22:28;;;;;;;;;;;;;;;14.62;43.24;98000.53;8492325;27;20047;-77
2022/04/24 12:26:29;;;;;;;12.68;5.55;;;;;;;14.70;43.47;97993.25;8511502;27;19919;-77
2022/04/24 12:30:34;;;;;;;12.32;6.15;;;;;;;14.74;42.90;97981.34;8502501;27;20051;-77
2022/04/24 12:34:43;;;;;;;10.95;5.65;;;;;;;14.72;43.13;97983.63;8516742;27;20055;-76
2022/04/24 12:38:59;;;;;;;10.70;5.80;;;;;;;14.78;42.86;97990.31;8502301;27;20047;-77
2022/04/24 12:43:00;;;;;;;11.70;5.63;;;;;;;14.94;42.64;97989.41;8508880;27;20046;-76
2022/04/24 12:47:04;;;;;;;12.75;6.68;;;;;;;14.95;42.08;97980.09;8512893;27;20077;-77
2022/04/24 12:51:06;;;;;;;11.07;5.57;;;;;;;14.88;42.25;97979.97;8459636;27;20465;-76
2022/04/24 12:55:07;;;;;;;9.50;5.25;;;;;;;14.72;43.26;97983.63;8473675;27;20039;-76
2022/04/24 12:59:08;;;;;;;9.50;5.55;;;;;;;14.64;43.65;97971.06;8527364;27;20046;-75
2022/04/24 13:03:11;;;;;;;14.65;5.75;;;;;;;14.51;43.79;97960.72;8514553;27;20045;-75
2022/04/24 13:07:13;;;;;;;13.38;5.22;;;;;;;14.44;43.42;97961.38;8508267;27;20069;-72
2022/04/24 13:11:15;;;;;;;11.20;5.88;;;;;;;14.37;43.84;97961.28;8467671;27;20043;-72
2022/04/24 13:15:16;;;;;;;9.15;5.47;;;;;;;14.27;43.58;97956.41;8473652;27;20054;-72
2022/04/24 13:19:17;;;;;;;10.23;5.28;;;;;;;14.21;44.22;97955.13;8484749;27;20103;-73
2022/04/24 13:23:18;;;;;;;9.05;5.15;;;;;;;14.17;45.23;97955.03;8510359;27;20042;-72
2022/04/24 13:27:20;;;;;;;11.40;5.55;;;;;;;14.12;45.49;97949.91;8506230;27;20046;-72
2022/04/24 13:31:21;;;;;;;11.07;6.20;;;;;;;14.01;47.11;97948.16;8505938;27;20046;-72
2022/04/24 13:35:23;;;;;;;11.93;7.03;;;;;;;13.89;48.55;97941.72;8488927;27;20488;-73
2022/04/24 13:39:26;;;;;;;11.82;6.68;;;;;;;13.72;50.45;97942.16;8473337;27;20511;-73
2022/04/24 13:43:32;;;;;;;18.75;6.57;;;;;;;13.57;51.71;97926.75;8511170;27;20060;-72
2022/04/24 13:47:33;;;;;;;13.23;7.65;;;;;;;13.49;53.50;97938.56;8496391;27;20592;-73
2022/04/24 13:51:34;;;;;;;17.42;6.90;;;;;;;13.27;56.46;97936.56;8511376;27;20624;-72
2022/04/24 13:55:36;;;;;;;14.73;7.70;;;;;;;12.95;59.31;97931.19;8509384;27;20039;-71
2022/04/24 13:59:42;;;;;;;12.32;7.80;;;;;;;12.77;61.58;97924.56;8500535;27;20048;-72
2022/04/24 14:03:43;;;;;;;11.40;7.20;;;;;;;12.58;62.96;97921.78;8485748;27;20043;-73
2022/04/24 14:07:44;;;;;;;12.57;7.45;;;;;;;12.35;63.72;97918.09;8516545;27;20050;-72
2022/04/24 14:11:46;;;;;;;13.30;8.63;;;;;;;12.15;66.63;97915.28;8513126;27;20502;-73
2022/04/24 14:15:47;;;;;;;14.95;8.75;;;;;;;12.00;67.81;97902.50;8510905;27;20047;-74
2022/04/24 14:19:48;;;;;;;17.98;9.75;;;;;;;11.74;69.42;97904.88;8508677;27;20046;-73
2022/04/24 14:23:49;;;;;;;23.17;10.60;;;;;;;11.61;70.31;97889.84;8427245;28;20052;-72
2022/04/24 14:27:51;;;;;;;32.55;16.92;;;;;;;11.54;72.10;97879.59;8391098;28;20051;-73
2022/04/24 14:31:52;;;;;;;33.00;17.77;;;;;;;11.50;73.66;97881.41;8424789;28;20158;-73
2022/04/24 14:35:53;;;;;;;26.95;14.35;;;;;;;11.42;74.62;97877.72;8427895;27;20131;-73
2022/04/24 14:39:56;;;;;;;19.80;12.43;;;;;;;11.30;75.19;97880.47;8424530;28;20056;-72
2022/04/24 14:43:59;;;;;;;17.15;11.55;;;;;;;11.34;76.98;97886.78;8425436;28;20075;-72
2022/04/24 14:56:40;;;;;;;;;;;;;;;11.07;80.65;97859.72;8513649;27;20051;-72
2022/04/24 15:00:42;;;;;;;19.88;12.45;;;;;;;10.99;82.00;97858.72;8514990;27;19927;-71
2022/04/24 15:04:43;;;;;;;21.58;13.60;;;;;;;10.91;81.63;97867.72;8503651;27;20050;-72
2022/04/24 15:08:44;;;;;;;31.70;16.20;;;;;;;10.81;81.36;97869.00;8517054;27;20050;-72
2022/04/24 15:12:45;;;;;;;31.55;15.95;;;;;;;10.78;81.23;97858.09;8507092;27;20050;-72
2022/04/24 15:16:46;;;;;;;31.35;17.42;;;;;;;10.75;81.07;97861.44;8502960;27;20055;-72
2022/04/24 15:20:47;;;;;;;23.02;14.23;;;;;;;10.81;82.42;97863.59;8519189;27;20050;-72
2022/04/24 15:24:49;;;;;;;30.02;18.00;;;;;;;10.69;82.26;97866.28;8510508;27;20107;-73
2022/04/24 15:28:52;;;;;;;30.20;17.98;;;;;;;10.68;83.14;97874.75;8461894;27;20050;-72
2022/04/24 15:32:54;;;;;;;32.40;16.55;;;;;;;10.64;83.64;97879.22;8509503;27;20188;-74
2022/04/24 15:36:56;;;;;;;26.58;16.67;;;;;;;10.55;84.12;97880.16;8408504;27;20055;-72
2022/04/24 15:41:00;;;;;;;24.27;15.98;;;;;;;10.53;84.06;97884.31;8509739;27;20090;-74
2022/04/24 15:45:17;;;;;;;27.52;17.75;;;;;;;10.47;84.24;97891.84;8505939;27;20080;-73
2022/04/24 15:49:18;;;;;;;25.67;15.27;;;;;;;10.47;85.37;97897.22;8503205;27;20067;-73
2022/04/24 15:53:19;;;;;;;24.98;16.40;;;;;;;10.42;85.54;97905.56;8512151;27;20031;-74
2022/04/24 15:57:20;;;;;;;30.65;19.23;;;;;;;10.36;85.29;97901.53;8506071;27;20043;-74
2022/04/24 16:01:22;;;;;;;25.50;17.08;;;;;;;10.28;85.41;97910.50;8501049;27;20039;-74
2022/04/24 16:05:25;;;;;;;31.75;17.63;;;;;;;10.25;85.74;97900.38;8506150;27;20442;-74
2022/04/24 16:09:28;;;;;;;32.92;20.00;;;;;;;10.19;85.78;97890.94;8457071;27;20485;-74
2022/04/24 16:13:30;;;;;;;33.42;17.20;;;;;;;10.14;86.33;97877.63;8457279;27;20043;-75
2022/04/24 16:17:33;;;;;;;24.27;16.83;;;;;;;10.09;87.48;97862.44;8512783;27;20035;-74
2022/04/24 16:21:35;;;;;;;24.38;15.60;;;;;;;10.03;87.66;97860.28;8449458;27;20447;-74
2022/04/24 16:25:37;;;;;;;24.15;15.55;;;;;;;9.92;87.83;97854.53;8493559;27;20096;-74
2022/04/24 16:29:57;;;;;;;21.33;15.38;;;;;;;9.86;88.20;97841.59;8494948;27;20050;-74
2022/04/24 16:33:58;;;;;;;25.85;15.77;;;;;;;9.86;88.62;97838.91;8502007;27;20043;-74
2022/04/24 16:38:00;;;;;;;27.65;16.30;;;;;;;9.83;88.77;97856.56;8501299;27;20050;-74
2022/04/24 16:42:01;;;;;;;32.90;20.00;;;;;;;9.71;90.28;97897.75;8471134;27;20184;-74
2022/04/24 16:46:03;;;;;;;28.42;18.90;;;;;;;9.59;90.68;97938.13;8447630;27;20477;-74
2022/04/24 16:50:07;;;;;;;36.47;22.75;;;;;;;9.50;91.55;97942.81;8534702;27;20507;-74
2022/04/24 16:58:48;;;;;;;28.40;18.83;;;;;;;9.68;90.37;97930.75;8390210;28;20044;-73
2022/04/24 17:02:50;;;;;;;31.17;15.90;;;;;;;9.74;90.79;97913.25;8422635;28;20101;-73
2022/04/24 17:06:52;;;;;;;47.75;23.10;;;;;;;9.68;90.78;97903.78;8427060;28;20048;-73
2022/04/24 17:10:54;;;;;;;39.63;20.23;;;;;;;9.67;91.44;97902.22;8411069;28;20051;-73
2022/04/24 17:14:56;;;;;;;48.63;22.75;;;;;;;9.61;91.29;97903.56;8393361;28;20048;-73
2022/04/24 17:18:58;;;;;;;33.45;21.52;;;;;;;9.56;91.85;97895.66;8427332;28;20154;-73
2022/04/24 17:23:02;;;;;;;30.92;20.98;;;;;;;9.56;92.40;97892.97;8412388;28;20094;-75
2022/04/24 17:27:05;;;;;;;32.03;21.35;;;;;;;9.46;92.45;97890.69;8426426;28;20082;-74
2022/04/24 17:31:08;;;;;;;38.35;24.48;;;;;;;9.48;93.31;97883.03;8377238;28;20081;-74
2022/04/24 17:35:10;;;;;;;45.03;26.83;;;;;;;9.49;93.82;97889.22;8462439;27;20138;-75
2022/04/24 17:39:11;;;;;;;30.15;19.95;;;;;;;9.43;94.74;97875.16;8459006;27;20046;-73
2022/04/24 17:43:14;;;;;;;31.73;20.13;;;;;;;9.40;95.37;97870.44;8494903;27;20135;-73
2022/04/24 17:47:15;;;;;;;33.97;20.13;;;;;;;9.33;95.82;97864.78;8520340;27;20439;-74
2022/04/24 17:51:17;;;;;;;42.67;22.65;;;;;;;9.24;95.87;97862.19;8509640;27;20142;-73
2022/04/24 17:55:18;;;;;;;51.42;24.70;;;;;;;9.28;96.62;97862.31;8510708;27;20050;-74
2022/04/24 17:59:21;;;;;;;35.35;20.88;;;;;;;9.23;96.92;97849.03;8410097;28;20426;-73
2022/04/24 18:03:22;;;;;;;36.97;22.17;;;;;;;9.18;97.31;97850.03;8384806;27;20079;-73
2022/04/24 18:07:23;;;;;;;32.67;21.30;;;;;;;9.19;97.80;97842.75;8450035;28;20414;-73
2022/04/24 18:11:27;;;;;;;37.45;21.30;;;;;;;9.21;98.31;97840.50;8429828;28;20075;-74
2022/04/24 18:15:30;;;;;;;37.28;20.70;;;;;;;9.22;98.75;97842.06;8405420;28;20126;-74
2022/04/24 18:19:31;;;;;;;32.38;19.35;;;;;;;9.18;98.92;97835.78;8441750;28;20110;-73
2022/04/24 18:23:33;;;;;;;38.10;19.83;;;;;;;9.12;99.43;97837.09;8425631;28;20115;-74
2022/04/24 18:27:35;;;;;;;31.17;18.38;;;;;;;9.15;99.70;97831.81;8438016;27;20036;-74
2022/04/24 18:31:39;;;;;;;34.50;20.45;;;;;;;9.13;100.00;97838.66;8518048;27;20115;-74
2022/04/24 18:40:00;;;;;;;39.17;21.05;;;;;;;9.04;100.00;97837.97;8529187;27;20544;-75
2022/04/24 18:44:02;;;;;;;39.33;21.20;;;;;;;9.07;100.00;97842.66;8512057;27;20404;-74
2022/04/24 18:48:04;;;;;;;31.88;20.50;;;;;;;9.10;100.00;97850.09;8509531;27;20072;-73
2022/04/24 18:52:07;;;;;;;42.88;21.25;;;;;;;9.06;100.00;97854.56;8522895;27;20080;-74
2022/04/24 18:56:12;;;;;;;34.30;21.80;;;;;;;9.05;100.00;97869.13;8418031;27;20066;-74
2022/04/24 19:00:16;;;;;;;30.75;20.10;;;;;;;9.06;100.00;97870.72;8493530;27;20208;-73
2022/04/24 19:08:42;;;;;;;29.90;18.83;;;;;;;9.12;100.00;97885.56;8511088;27;20045;-74
2022/04/24 19:12:53;;;;;;;49.27;25.57;;;;;;;9.16;100.00;97891.88;8498561;27;20049;-74
2022/04/24 19:16:54;;;;;;;36.85;19.40;;;;;;;9.19;100.00;97891.22;8460029;27;20051;-73
2022/04/24 19:20:59;;;;;;;29.20;18.48;;;;;;;9.19;100.00;97891.22;8513861;27;20131;-74